sensor_id;sensor_type;location;lat;lon;timestamp;temperature;humidity
10263;DHT22;5177;50.068;8.156;2022-12-18T00:00:04;-6.80;99.90
10263;DHT22;5177;50.068;8.156;2022-12-18T00:02:30;-6.80;99.90
10263;DHT22;5177;50.068;8.156;2022-12-18T00:04:55;-6.90;99.90
10263;DHT22;5177;50.068;8.156;2022-12-18T00:07:21;-6.90;99.90
10263;DHT22;5177;50.068;8.156;2022-12-18T00:09:46;-6.80;99.90
10263;DHT22;5177;50.068;8.156;2022-12-18T00:12:12;-6.80;99.90
10263;DHT22;5177;50.068;8.156;2022-12-18T00:14:38;-6.90;99.90
10263;DHT22;5177;50.068;8.156;2022-12-18T00:17:03;-6.90;99.90
10263;DHT22;5177;50.068;8.156;2022-12-18T00:19:29;-6.90;99.90
10263;DHT22;5177;50.068;8.156;2022-12-18T00:21:54;-7.00;99.90
10263;DHT22;5177;50.068;8.156;2022-12-18T00:24:20;-7.00;99.90
10263;DHT22;5177;50.068;8.156;2022-12-18T00:26:46;-7.00;99.90
10263;DHT22;5177;50.068;8.156;2022-12-18T00:29:12;-7.00;99.90
10263;DHT22;5177;50.068;8.156;2022-12-18T00:31:39;-7.10;99.90
10263;DHT22;5177;50.068;8.156;2022-12-18T00:34:05;-7.10;99.90
10263;DHT22;5177;50.068;8.156;2022-12-18T00:36:32;-7.30;99.90
10263;DHT22;5177;50.068;8.156;2022-12-18T00:38:59;-7.30;99.90
10263;DHT22;5177;50.068;8.156;2022-12-18T00:41:25;-7.30;99.90
10263;DHT22;5177;50.068;8.156;2022-12-18T00:44:11;-7.30;99.90
10263;DHT22;5177;50.068;8.156;2022-12-18T00:46:37;-7.40;99.90
10263;DHT22;5177;50.068;8.156;2022-12-18T00:49:03;-7.30;99.90
10263;DHT22;5177;50.068;8.156;2022-12-18T00:51:28;-7.20;99.90
10263;DHT22;5177;50.068;8.156;2022-12-18T00:53:54;-7.30;99.90
10263;DHT22;5177;50.068;8.156;2022-12-18T00:56:20;-7.30;99.90
10263;DHT22;5177;50.068;8.156;2022-12-18T00:58:47;-7.40;99.90
10263;DHT22;5177;50.068;8.156;2022-12-18T01:01:13;-7.40;99.90
10263;DHT22;5177;50.068;8.156;2022-12-18T01:03:38;-7.40;99.90
10263;DHT22;5177;50.068;8.156;2022-12-18T01:06:08;-7.40;99.90
10263;DHT22;5177;50.068;8.156;2022-12-18T01:08:34;-7.40;99.90
10263;DHT22;5177;50.068;8.156;2022-12-18T01:11:00;-7.40;99.90
10263;DHT22;5177;50.068;8.156;2022-12-18T01:13:26;-7.40;99.90
10263;DHT22;5177;50.068;8.156;2022-12-18T01:15:51;-7.40;99.90
10263;DHT22;5177;50.068;8.156;2022-12-18T01:18:17;-7.40;99.90
10263;DHT22;5177;50.068;8.156;2022-12-18T01:20:42;-7.40;99.90
10263;DHT22;5177;50.068;8.156;2022-12-18T01:23:08;-7.40;99.90
10263;DHT22;5177;50.068;8.156;2022-12-18T01:25:35;-7.40;99.90
10263;DHT22;5177;50.068;8.156;2022-12-18T01:28:01;-7.40;99.90
10263;DHT22;5177;50.068;8.156;2022-12-18T01:30:27;-7.40;99.90
10263;DHT22;5177;50.068;8.156;2022-12-18T01:32:52;-7.30;99.90
10263;DHT22;5177;50.068;8.156;2022-12-18T01:35:18;-7.30;99.90
10263;DHT22;5177;50.068;8.156;2022-12-18T01:37:44;-7.30;99.90
10263;DHT22;5177;50.068;8.156;2022-12-18T01:40:10;-7.30;99.90
10263;DHT22;5177;50.068;8.156;2022-12-18T01:42:35;-7.30;99.90
10263;DHT22;5177;50.068;8.156;2022-12-18T01:48:00;-7.30;99.90
10263;DHT22;5177;50.068;8.156;2022-12-18T01:50:30;-7.30;99.90
10263;DHT22;5177;50.068;8.156;2022-12-18T01:55:25;-7.30;99.90
10263;DHT22;5177;50.068;8.156;2022-12-18T01:57:52;-7.30;99.90
10263;DHT22;5177;50.068;8.156;2022-12-18T02:00:19;-7.30;99.90
10263;DHT22;5177;50.068;8.156;2022-12-18T02:02:45;-7.40;99.90
10263;DHT22;5177;50.068;8.156;2022-12-18T02:05:11;-7.40;99.90
10263;DHT22;5177;50.068;8.156;2022-12-18T02:10:09;-7.40;99.90
10263;DHT22;5177;50.068;8.156;2022-12-18T02:15:10;-7.40;99.90
10263;DHT22;5177;50.068;8.156;2022-12-18T02:17:39;-7.40;99.90
10263;DHT22;5177;50.068;8.156;2022-12-18T02:20:17;-7.40;99.90
10263;DHT22;5177;50.068;8.156;2022-12-18T02:22:46;-7.40;99.90
10263;DHT22;5177;50.068;8.156;2022-12-18T02:28:00;-7.40;99.90
10263;DHT22;5177;50.068;8.156;2022-12-18T02:30:27;-7.50;99.90
10263;DHT22;5177;50.068;8.156;2022-12-18T02:32:54;-7.50;99.90
10263;DHT22;5177;50.068;8.156;2022-12-18T02:35:22;-7.50;99.90
10263;DHT22;5177;50.068;8.156;2022-12-18T02:37:49;-7.50;99.90
10263;DHT22;5177;50.068;8.156;2022-12-18T02:40:15;-7.50;99.90
10263;DHT22;5177;50.068;8.156;2022-12-18T02:42:42;-7.50;99.90
10263;DHT22;5177;50.068;8.156;2022-12-18T02:45:08;-7.50;99.90
10263;DHT22;5177;50.068;8.156;2022-12-18T02:47:35;-7.50;99.90
10263;DHT22;5177;50.068;8.156;2022-12-18T02:52:35;-7.60;99.90
10263;DHT22;5177;50.068;8.156;2022-12-18T02:55:10;-7.60;99.90
10263;DHT22;5177;50.068;8.156;2022-12-18T02:57:53;-7.60;99.90
10263;DHT22;5177;50.068;8.156;2022-12-18T03:00:20;-7.60;99.90
10263;DHT22;5177;50.068;8.156;2022-12-18T03:05:25;-7.70;99.90
10263;DHT22;5177;50.068;8.156;2022-12-18T03:08:05;-7.60;99.90
10263;DHT22;5177;50.068;8.156;2022-12-18T03:10:32;-7.60;99.90
10263;DHT22;5177;50.068;8.156;2022-12-18T03:13:04;-7.70;99.90
10263;DHT22;5177;50.068;8.156;2022-12-18T03:15:35;-7.70;99.90
10263;DHT22;5177;50.068;8.156;2022-12-18T03:18:04;-7.70;99.90
10263;DHT22;5177;50.068;8.156;2022-12-18T03:20:30;-7.70;99.90
10263;DHT22;5177;50.068;8.156;2022-12-18T03:22:59;-7.70;99.90
10263;DHT22;5177;50.068;8.156;2022-12-18T03:25:26;-7.60;99.90
10263;DHT22;5177;50.068;8.156;2022-12-18T03:27:54;-7.60;99.90
10263;DHT22;5177;50.068;8.156;2022-12-18T03:30:21;-7.60;99.90
10263;DHT22;5177;50.068;8.156;2022-12-18T03:32:52;-7.60;99.90
10263;DHT22;5177;50.068;8.156;2022-12-18T03:35:21;-7.70;99.90
10263;DHT22;5177;50.068;8.156;2022-12-18T03:37:47;-7.70;99.90
10263;DHT22;5177;50.068;8.156;2022-12-18T03:40:12;-7.70;99.90
10263;DHT22;5177;50.068;8.156;2022-12-18T03:42:43;-7.60;99.90
10263;DHT22;5177;50.068;8.156;2022-12-18T03:48:20;-7.60;99.90
10263;DHT22;5177;50.068;8.156;2022-12-18T03:50:21;-7.60;99.90
10263;DHT22;5177;50.068;8.156;2022-12-18T03:52:58;-7.60;99.90
10263;DHT22;5177;50.068;8.156;2022-12-18T03:55:27;-7.60;99.90
10263;DHT22;5177;50.068;8.156;2022-12-18T03:57:55;-7.50;99.90
10263;DHT22;5177;50.068;8.156;2022-12-18T04:00:21;-7.60;99.90
10263;DHT22;5177;50.068;8.156;2022-12-18T04:02:51;-7.70;99.90
10263;DHT22;5177;50.068;8.156;2022-12-18T04:05:17;-7.60;99.90
10263;DHT22;5177;50.068;8.156;2022-12-18T04:07:44;-7.60;99.90
10263;DHT22;5177;50.068;8.156;2022-12-18T04:10:10;-7.60;99.90
10263;DHT22;5177;50.068;8.156;2022-12-18T04:12:37;-7.60;99.90
10263;DHT22;5177;50.068;8.156;2022-12-18T04:15:02;-7.60;99.90
10263;DHT22;5177;50.068;8.156;2022-12-18T04:17:28;-7.60;99.90
10263;DHT22;5177;50.068;8.156;2022-12-18T04:19:53;-7.60;99.90
10263;DHT22;5177;50.068;8.156;2022-12-18T04:22:19;-7.60;99.90
10263;DHT22;5177;50.068;8.156;2022-12-18T04:24:44;-7.60;99.90
10263;DHT22;5177;50.068;8.156;2022-12-18T04:27:10;-7.70;99.90
10263;DHT22;5177;50.068;8.156;2022-12-18T04:29:35;-7.60;99.90
10263;DHT22;5177;50.068;8.156;2022-12-18T04:32:01;-7.60;99.90
10263;DHT22;5177;50.068;8.156;2022-12-18T04:34:26;-7.50;99.90
10263;DHT22;5177;50.068;8.156;2022-12-18T04:36:52;-7.50;99.90
10263;DHT22;5177;50.068;8.156;2022-12-18T04:39:17;-7.50;99.90
10263;DHT22;5177;50.068;8.156;2022-12-18T04:41:43;-7.50;99.90
10263;DHT22;5177;50.068;8.156;2022-12-18T04:44:08;-7.50;99.90
10263;DHT22;5177;50.068;8.156;2022-12-18T04:46:34;-7.40;99.90
10263;DHT22;5177;50.068;8.156;2022-12-18T04:48:59;-7.40;99.90
10263;DHT22;5177;50.068;8.156;2022-12-18T04:51:25;-7.40;99.90
10263;DHT22;5177;50.068;8.156;2022-12-18T04:53:50;-7.40;99.90
10263;DHT22;5177;50.068;8.156;2022-12-18T04:56:16;-7.40;99.90
10263;DHT22;5177;50.068;8.156;2022-12-18T04:58:42;-7.40;99.90
10263;DHT22;5177;50.068;8.156;2022-12-18T05:01:09;-7.40;99.90
10263;DHT22;5177;50.068;8.156;2022-12-18T05:03:35;-7.50;99.90
10263;DHT22;5177;50.068;8.156;2022-12-18T05:06:00;-7.50;99.90
10263;DHT22;5177;50.068;8.156;2022-12-18T05:08:26;-7.50;99.90
10263;DHT22;5177;50.068;8.156;2022-12-18T05:10:58;-7.50;99.90
10263;DHT22;5177;50.068;8.156;2022-12-18T05:13:23;-7.50;99.90
10263;DHT22;5177;50.068;8.156;2022-12-18T05:15:52;-7.50;99.90
10263;DHT22;5177;50.068;8.156;2022-12-18T05:18:18;-7.50;99.90
10263;DHT22;5177;50.068;8.156;2022-12-18T05:20:43;-7.50;99.90
10263;DHT22;5177;50.068;8.156;2022-12-18T05:23:09;-7.50;99.90
10263;DHT22;5177;50.068;8.156;2022-12-18T05:25:34;-7.50;99.90
10263;DHT22;5177;50.068;8.156;2022-12-18T05:28:00;-7.50;99.90
10263;DHT22;5177;50.068;8.156;2022-12-18T05:30:25;-7.50;99.90
10263;DHT22;5177;50.068;8.156;2022-12-18T05:32:51;-7.50;99.90
10263;DHT22;5177;50.068;8.156;2022-12-18T05:35:16;-7.50;99.90
10263;DHT22;5177;50.068;8.156;2022-12-18T05:37:42;-7.40;99.90
10263;DHT22;5177;50.068;8.156;2022-12-18T05:40:07;-7.50;99.90
10263;DHT22;5177;50.068;8.156;2022-12-18T05:42:33;-7.50;99.90
10263;DHT22;5177;50.068;8.156;2022-12-18T05:44:58;-7.50;99.90
10263;DHT22;5177;50.068;8.156;2022-12-18T05:47:24;-7.50;99.90
10263;DHT22;5177;50.068;8.156;2022-12-18T05:49:49;-7.50;99.90
10263;DHT22;5177;50.068;8.156;2022-12-18T05:52:15;-7.50;99.90
10263;DHT22;5177;50.068;8.156;2022-12-18T05:54:40;-7.50;99.90
10263;DHT22;5177;50.068;8.156;2022-12-18T05:57:06;-7.60;99.90
10263;DHT22;5177;50.068;8.156;2022-12-18T05:59:31;-7.60;99.90
10263;DHT22;5177;50.068;8.156;2022-12-18T06:01:57;-7.60;99.90
10263;DHT22;5177;50.068;8.156;2022-12-18T06:04:22;-7.60;99.90
10263;DHT22;5177;50.068;8.156;2022-12-18T06:06:48;-7.60;99.90
10263;DHT22;5177;50.068;8.156;2022-12-18T06:09:13;-7.50;99.90
10263;DHT22;5177;50.068;8.156;2022-12-18T06:11:39;-7.50;99.90
10263;DHT22;5177;50.068;8.156;2022-12-18T06:14:05;-7.50;99.90
10263;DHT22;5177;50.068;8.156;2022-12-18T06:16:30;-7.40;99.90
10263;DHT22;5177;50.068;8.156;2022-12-18T06:18:57;-7.40;99.90
10263;DHT22;5177;50.068;8.156;2022-12-18T06:21:22;-7.30;99.90
10263;DHT22;5177;50.068;8.156;2022-12-18T06:23:48;-7.30;99.90
10263;DHT22;5177;50.068;8.156;2022-12-18T06:26:13;-7.30;99.90
10263;DHT22;5177;50.068;8.156;2022-12-18T06:28:39;-7.30;99.90
10263;DHT22;5177;50.068;8.156;2022-12-18T06:31:05;-7.20;99.90
10263;DHT22;5177;50.068;8.156;2022-12-18T06:33:31;-7.20;99.90
10263;DHT22;5177;50.068;8.156;2022-12-18T06:36:29;-7.20;99.90
10263;DHT22;5177;50.068;8.156;2022-12-18T06:38:48;-7.20;99.90
10263;DHT22;5177;50.068;8.156;2022-12-18T06:41:15;-7.20;99.90
10263;DHT22;5177;50.068;8.156;2022-12-18T06:43:42;-7.20;99.90
10263;DHT22;5177;50.068;8.156;2022-12-18T06:46:07;-7.20;99.90
10263;DHT22;5177;50.068;8.156;2022-12-18T06:48:33;-7.20;99.90
10263;DHT22;5177;50.068;8.156;2022-12-18T06:50:59;-7.20;99.90
10263;DHT22;5177;50.068;8.156;2022-12-18T06:53:25;-7.20;99.90
10263;DHT22;5177;50.068;8.156;2022-12-18T06:55:51;-7.20;99.90
10263;DHT22;5177;50.068;8.156;2022-12-18T06:58:16;-7.20;99.90
10263;DHT22;5177;50.068;8.156;2022-12-18T07:00:42;-7.20;99.90
10263;DHT22;5177;50.068;8.156;2022-12-18T07:03:08;-7.20;99.90
10263;DHT22;5177;50.068;8.156;2022-12-18T07:05:33;-7.20;99.90
10263;DHT22;5177;50.068;8.156;2022-12-18T07:07:59;-7.20;99.90
10263;DHT22;5177;50.068;8.156;2022-12-18T07:10:24;-7.10;99.90
10263;DHT22;5177;50.068;8.156;2022-12-18T07:12:50;-7.00;99.90
10263;DHT22;5177;50.068;8.156;2022-12-18T07:15:16;-7.00;99.90
10263;DHT22;5177;50.068;8.156;2022-12-18T07:17:41;-6.90;99.90
10263;DHT22;5177;50.068;8.156;2022-12-18T07:20:07;-6.80;99.90
10263;DHT22;5177;50.068;8.156;2022-12-18T07:22:33;-6.80;99.90
10263;DHT22;5177;50.068;8.156;2022-12-18T07:24:58;-6.70;99.90
10263;DHT22;5177;50.068;8.156;2022-12-18T07:27:24;-6.70;99.90
10263;DHT22;5177;50.068;8.156;2022-12-18T07:29:49;-6.60;99.90
10263;DHT22;5177;50.068;8.156;2022-12-18T07:32:15;-6.60;99.90
10263;DHT22;5177;50.068;8.156;2022-12-18T07:34:40;-6.60;99.90
10263;DHT22;5177;50.068;8.156;2022-12-18T07:37:06;-6.60;99.90
10263;DHT22;5177;50.068;8.156;2022-12-18T07:39:31;-6.60;99.90
10263;DHT22;5177;50.068;8.156;2022-12-18T07:41:57;-6.60;99.90
10263;DHT22;5177;50.068;8.156;2022-12-18T07:44:41;-6.60;99.90
10263;DHT22;5177;50.068;8.156;2022-12-18T07:47:06;-6.60;99.90
10263;DHT22;5177;50.068;8.156;2022-12-18T07:49:32;-6.60;99.90
10263;DHT22;5177;50.068;8.156;2022-12-18T07:51:57;-6.60;99.90
10263;DHT22;5177;50.068;8.156;2022-12-18T07:54:23;-6.60;99.90
10263;DHT22;5177;50.068;8.156;2022-12-18T07:56:49;-6.60;99.90
10263;DHT22;5177;50.068;8.156;2022-12-18T07:59:15;-6.60;99.90
10263;DHT22;5177;50.068;8.156;2022-12-18T08:01:40;-6.60;99.90
10263;DHT22;5177;50.068;8.156;2022-12-18T08:04:06;-6.60;99.90
10263;DHT22;5177;50.068;8.156;2022-12-18T08:06:31;-6.50;99.90
10263;DHT22;5177;50.068;8.156;2022-12-18T08:08:57;-6.50;99.90
10263;DHT22;5177;50.068;8.156;2022-12-18T08:11:23;-6.40;99.90
10263;DHT22;5177;50.068;8.156;2022-12-18T08:13:49;-6.30;99.90
10263;DHT22;5177;50.068;8.156;2022-12-18T08:16:15;-6.20;99.90
10263;DHT22;5177;50.068;8.156;2022-12-18T08:18:40;-6.10;99.90
10263;DHT22;5177;50.068;8.156;2022-12-18T08:23:38;-6.00;99.90
10263;DHT22;5177;50.068;8.156;2022-12-18T08:26:04;-5.90;99.90
10263;DHT22;5177;50.068;8.156;2022-12-18T08:28:29;-5.80;99.90
10263;DHT22;5177;50.068;8.156;2022-12-18T08:30:55;-5.60;99.90
10263;DHT22;5177;50.068;8.156;2022-12-18T08:33:20;-5.40;99.90
10263;DHT22;5177;50.068;8.156;2022-12-18T08:35:46;-5.20;99.90
10263;DHT22;5177;50.068;8.156;2022-12-18T08:38:11;-5.10;99.90
10263;DHT22;5177;50.068;8.156;2022-12-18T08:40:37;-5.00;99.90
10263;DHT22;5177;50.068;8.156;2022-12-18T08:43:02;-5.00;99.90
10263;DHT22;5177;50.068;8.156;2022-12-18T08:45:46;-4.90;99.90
10263;DHT22;5177;50.068;8.156;2022-12-18T08:48:12;-4.70;99.90
10263;DHT22;5177;50.068;8.156;2022-12-18T08:50:37;-4.50;99.90
10263;DHT22;5177;50.068;8.156;2022-12-18T08:53:03;-4.50;99.90
10263;DHT22;5177;50.068;8.156;2022-12-18T08:55:28;-4.30;99.90
10263;DHT22;5177;50.068;8.156;2022-12-18T08:57:54;-4.30;99.90
10263;DHT22;5177;50.068;8.156;2022-12-18T09:00:19;-4.20;99.90
10263;DHT22;5177;50.068;8.156;2022-12-18T09:02:45;-4.10;99.90
10263;DHT22;5177;50.068;8.156;2022-12-18T09:05:10;-4.10;99.90
10263;DHT22;5177;50.068;8.156;2022-12-18T09:07:36;-4.00;99.90
10263;DHT22;5177;50.068;8.156;2022-12-18T09:10:01;-3.90;99.90
10263;DHT22;5177;50.068;8.156;2022-12-18T09:12:27;-4.00;99.90
10263;DHT22;5177;50.068;8.156;2022-12-18T09:14:52;-3.80;99.90
10263;DHT22;5177;50.068;8.156;2022-12-18T09:17:18;-3.80;99.90
10263;DHT22;5177;50.068;8.156;2022-12-18T09:19:43;-3.80;99.90
10263;DHT22;5177;50.068;8.156;2022-12-18T09:22:09;-3.70;99.90
10263;DHT22;5177;50.068;8.156;2022-12-18T09:24:35;-3.60;99.90
10263;DHT22;5177;50.068;8.156;2022-12-18T09:27:00;-3.60;99.90
10263;DHT22;5177;50.068;8.156;2022-12-18T09:29:26;-3.60;99.90
10263;DHT22;5177;50.068;8.156;2022-12-18T09:31:51;-3.40;99.90
10263;DHT22;5177;50.068;8.156;2022-12-18T09:34:17;-3.30;99.90
10263;DHT22;5177;50.068;8.156;2022-12-18T09:36:42;-3.20;99.90
10263;DHT22;5177;50.068;8.156;2022-12-18T09:39:08;-3.00;99.90
10263;DHT22;5177;50.068;8.156;2022-12-18T09:46:51;-2.80;99.90
10263;DHT22;5177;50.068;8.156;2022-12-18T09:49:19;-2.90;99.90
10263;DHT22;5177;50.068;8.156;2022-12-18T09:51:50;-2.90;99.90
10263;DHT22;5177;50.068;8.156;2022-12-18T09:54:18;-2.80;99.90
10263;DHT22;5177;50.068;8.156;2022-12-18T09:56:45;-3.00;99.90
10263;DHT22;5177;50.068;8.156;2022-12-18T09:59:30;-3.10;99.90
10263;DHT22;5177;50.068;8.156;2022-12-18T10:01:57;-3.00;99.90
10263;DHT22;5177;50.068;8.156;2022-12-18T10:04:23;-3.10;99.90
10263;DHT22;5177;50.068;8.156;2022-12-18T10:06:59;-3.00;99.90
10263;DHT22;5177;50.068;8.156;2022-12-18T10:09:44;-2.90;99.90
10263;DHT22;5177;50.068;8.156;2022-12-18T10:12:23;-2.90;99.90
10263;DHT22;5177;50.068;8.156;2022-12-18T10:19:59;-2.70;99.90
10263;DHT22;5177;50.068;8.156;2022-12-18T10:22:38;-2.60;99.90
10263;DHT22;5177;50.068;8.156;2022-12-18T10:25:25;-2.70;99.90
10263;DHT22;5177;50.068;8.156;2022-12-18T10:27:56;-2.80;99.90
10263;DHT22;5177;50.068;8.156;2022-12-18T10:30:23;-2.80;99.90
10263;DHT22;5177;50.068;8.156;2022-12-18T10:32:49;-2.80;99.90
10263;DHT22;5177;50.068;8.156;2022-12-18T10:35:24;-2.80;99.90
10263;DHT22;5177;50.068;8.156;2022-12-18T10:38:00;-2.90;99.90
10263;DHT22;5177;50.068;8.156;2022-12-18T10:40:26;-2.90;99.90
10263;DHT22;5177;50.068;8.156;2022-12-18T10:43:14;-3.00;99.90
10263;DHT22;5177;50.068;8.156;2022-12-18T10:45:38;-3.00;99.90
10263;DHT22;5177;50.068;8.156;2022-12-18T10:48:03;-2.90;99.90
10263;DHT22;5177;50.068;8.156;2022-12-18T10:50:33;-2.80;99.90
10263;DHT22;5177;50.068;8.156;2022-12-18T10:52:59;-2.80;99.90
10263;DHT22;5177;50.068;8.156;2022-12-18T10:55:38;-2.70;99.90
10263;DHT22;5177;50.068;8.156;2022-12-18T10:58:16;-2.60;99.90
10263;DHT22;5177;50.068;8.156;2022-12-18T11:00:50;-2.50;99.90
10263;DHT22;5177;50.068;8.156;2022-12-18T11:03:36;-2.40;99.90
10263;DHT22;5177;50.068;8.156;2022-12-18T11:06:22;-2.50;99.90
10263;DHT22;5177;50.068;8.156;2022-12-18T11:09:06;-2.40;99.90
10263;DHT22;5177;50.068;8.156;2022-12-18T11:11:50;-2.50;99.90
10263;DHT22;5177;50.068;8.156;2022-12-18T11:14:20;-2.50;99.90
10263;DHT22;5177;50.068;8.156;2022-12-18T11:16:47;-2.40;99.90
10263;DHT22;5177;50.068;8.156;2022-12-18T11:19:19;-2.40;99.90
10263;DHT22;5177;50.068;8.156;2022-12-18T11:21:48;-2.40;99.90
10263;DHT22;5177;50.068;8.156;2022-12-18T11:24:20;-2.40;99.90
10263;DHT22;5177;50.068;8.156;2022-12-18T11:26:49;-2.40;99.90
10263;DHT22;5177;50.068;8.156;2022-12-18T11:29:19;-2.30;99.90
10263;DHT22;5177;50.068;8.156;2022-12-18T11:31:48;-2.40;99.90
10263;DHT22;5177;50.068;8.156;2022-12-18T11:34:19;-2.30;99.90
10263;DHT22;5177;50.068;8.156;2022-12-18T11:36:48;-2.20;99.90
10263;DHT22;5177;50.068;8.156;2022-12-18T11:39:35;-2.10;99.90
10263;DHT22;5177;50.068;8.156;2022-12-18T11:42:04;-2.00;99.90
10263;DHT22;5177;50.068;8.156;2022-12-18T11:47:42;-2.00;99.90
10263;DHT22;5177;50.068;8.156;2022-12-18T11:50:19;-2.00;99.90
10263;DHT22;5177;50.068;8.156;2022-12-18T11:52:45;-1.90;99.90
10263;DHT22;5177;50.068;8.156;2022-12-18T11:55:15;-2.00;99.90
10263;DHT22;5177;50.068;8.156;2022-12-18T12:00:12;-2.00;99.90
10263;DHT22;5177;50.068;8.156;2022-12-18T12:13:23;-2.20;99.90
10263;DHT22;5177;50.068;8.156;2022-12-18T12:21:03;-2.20;99.90
10263;DHT22;5177;50.068;8.156;2022-12-18T12:23:40;-2.20;99.90
10263;DHT22;5177;50.068;8.156;2022-12-18T12:26:08;-2.20;99.90
10263;DHT22;5177;50.068;8.156;2022-12-18T12:28:50;-2.20;99.90
10263;DHT22;5177;50.068;8.156;2022-12-18T12:31:39;-2.30;99.90
10263;DHT22;5177;50.068;8.156;2022-12-18T12:34:14;-2.30;99.90
10263;DHT22;5177;50.068;8.156;2022-12-18T12:39:21;-2.30;99.90
10263;DHT22;5177;50.068;8.156;2022-12-18T12:41:47;-2.50;99.90
10263;DHT22;5177;50.068;8.156;2022-12-18T12:44:38;-2.50;99.90
10263;DHT22;5177;50.068;8.156;2022-12-18T12:47:18;-2.60;99.90
10263;DHT22;5177;50.068;8.156;2022-12-18T12:49:46;-2.50;99.90
10263;DHT22;5177;50.068;8.156;2022-12-18T12:52:32;-2.50;99.90
10263;DHT22;5177;50.068;8.156;2022-12-18T12:54:58;-2.50;99.90
10263;DHT22;5177;50.068;8.156;2022-12-18T12:57:27;-2.50;99.90
10263;DHT22;5177;50.068;8.156;2022-12-18T13:00:11;-2.50;99.90
10263;DHT22;5177;50.068;8.156;2022-12-18T13:02:49;-2.60;99.90
10263;DHT22;5177;50.068;8.156;2022-12-18T13:07:59;-2.60;99.90
10263;DHT22;5177;50.068;8.156;2022-12-18T13:10:28;-2.60;99.90
10263;DHT22;5177;50.068;8.156;2022-12-18T13:18:05;-2.50;99.90
10263;DHT22;5177;50.068;8.156;2022-12-18T13:20:36;-2.50;99.90
10263;DHT22;5177;50.068;8.156;2022-12-18T13:25:46;-2.60;99.90
10263;DHT22;5177;50.068;8.156;2022-12-18T13:28:15;-2.50;99.90
10263;DHT22;5177;50.068;8.156;2022-12-18T13:30:48;-2.50;99.90
10263;DHT22;5177;50.068;8.156;2022-12-18T13:35:40;-2.60;99.90
10263;DHT22;5177;50.068;8.156;2022-12-18T13:43:46;-2.50;99.90
10263;DHT22;5177;50.068;8.156;2022-12-18T13:46:19;-2.50;99.90
10263;DHT22;5177;50.068;8.156;2022-12-18T13:49:06;-2.60;99.90
10263;DHT22;5177;50.068;8.156;2022-12-18T13:51:34;-2.60;99.90
10263;DHT22;5177;50.068;8.156;2022-12-18T13:54:01;-2.60;99.90
10263;DHT22;5177;50.068;8.156;2022-12-18T13:56:28;-2.70;99.90
10263;DHT22;5177;50.068;8.156;2022-12-18T13:59:10;-2.70;99.90
10263;DHT22;5177;50.068;8.156;2022-12-18T14:01:36;-2.70;99.90
10263;DHT22;5177;50.068;8.156;2022-12-18T14:04:10;-2.80;99.90
10263;DHT22;5177;50.068;8.156;2022-12-18T14:06:35;-2.80;99.90
10263;DHT22;5177;50.068;8.156;2022-12-18T14:09:01;-2.70;99.90
10263;DHT22;5177;50.068;8.156;2022-12-18T14:11:27;-2.70;99.90
10263;DHT22;5177;50.068;8.156;2022-12-18T14:13:53;-2.80;99.90
10263;DHT22;5177;50.068;8.156;2022-12-18T14:16:18;-2.80;99.90
10263;DHT22;5177;50.068;8.156;2022-12-18T14:21:16;-2.90;99.90
10263;DHT22;5177;50.068;8.156;2022-12-18T14:23:42;-2.90;99.90
10263;DHT22;5177;50.068;8.156;2022-12-18T14:28:49;-2.80;99.90
10263;DHT22;5177;50.068;8.156;2022-12-18T14:31:18;-2.90;99.90
10263;DHT22;5177;50.068;8.156;2022-12-18T14:33:44;-2.90;99.90
10263;DHT22;5177;50.068;8.156;2022-12-18T14:36:20;-2.90;99.90
10263;DHT22;5177;50.068;8.156;2022-12-18T14:38:50;-2.90;99.90
10263;DHT22;5177;50.068;8.156;2022-12-18T14:41:17;-2.90;99.90
10263;DHT22;5177;50.068;8.156;2022-12-18T14:43:43;-2.90;99.90
10263;DHT22;5177;50.068;8.156;2022-12-18T14:48:50;-3.00;99.90
10263;DHT22;5177;50.068;8.156;2022-12-18T14:51:17;-3.00;99.90
10263;DHT22;5177;50.068;8.156;2022-12-18T14:53:44;-2.90;99.90
10263;DHT22;5177;50.068;8.156;2022-12-18T14:56:15;-2.90;99.90
10263;DHT22;5177;50.068;8.156;2022-12-18T14:58:44;-3.00;99.90
10263;DHT22;5177;50.068;8.156;2022-12-18T15:01:17;-3.00;99.90
10263;DHT22;5177;50.068;8.156;2022-12-18T15:03:43;-3.00;99.90
10263;DHT22;5177;50.068;8.156;2022-12-18T15:06:16;-3.00;99.90
10263;DHT22;5177;50.068;8.156;2022-12-18T15:08:42;-3.10;99.90
10263;DHT22;5177;50.068;8.156;2022-12-18T15:13:52;-3.10;99.90
10263;DHT22;5177;50.068;8.156;2022-12-18T15:16:17;-3.10;99.90
10263;DHT22;5177;50.068;8.156;2022-12-18T15:18:43;-3.10;99.90
10263;DHT22;5177;50.068;8.156;2022-12-18T15:21:10;-3.20;99.90
10263;DHT22;5177;50.068;8.156;2022-12-18T15:26:12;-3.20;99.90
10263;DHT22;5177;50.068;8.156;2022-12-18T15:33:40;-3.30;99.90
10263;DHT22;5177;50.068;8.156;2022-12-18T15:36:13;-3.30;99.90
10263;DHT22;5177;50.068;8.156;2022-12-18T15:38:39;-3.30;99.90
10263;DHT22;5177;50.068;8.156;2022-12-18T15:41:05;-3.30;99.90
10263;DHT22;5177;50.068;8.156;2022-12-18T15:43:30;-3.40;99.90
10263;DHT22;5177;50.068;8.156;2022-12-18T15:46:02;-3.30;99.90
10263;DHT22;5177;50.068;8.156;2022-12-18T15:48:28;-3.40;99.90
10263;DHT22;5177;50.068;8.156;2022-12-18T15:50:55;-3.40;99.90
10263;DHT22;5177;50.068;8.156;2022-12-18T15:53:22;-3.40;99.90
10263;DHT22;5177;50.068;8.156;2022-12-18T15:55:48;-3.30;99.90
10263;DHT22;5177;50.068;8.156;2022-12-18T15:58:43;-3.30;99.90
10263;DHT22;5177;50.068;8.156;2022-12-18T16:01:09;-3.30;99.90
10263;DHT22;5177;50.068;8.156;2022-12-18T16:03:36;-3.30;99.90
10263;DHT22;5177;50.068;8.156;2022-12-18T16:06:01;-3.30;99.90
10263;DHT22;5177;50.068;8.156;2022-12-18T16:08:30;-3.30;99.90
10263;DHT22;5177;50.068;8.156;2022-12-18T16:10:56;-3.30;99.90
10263;DHT22;5177;50.068;8.156;2022-12-18T16:13:22;-3.30;99.90
10263;DHT22;5177;50.068;8.156;2022-12-18T16:15:47;-3.30;99.90
10263;DHT22;5177;50.068;8.156;2022-12-18T16:18:13;-3.30;99.90
10263;DHT22;5177;50.068;8.156;2022-12-18T16:20:39;-3.30;99.90
10263;DHT22;5177;50.068;8.156;2022-12-18T16:23:05;-3.30;99.90
10263;DHT22;5177;50.068;8.156;2022-12-18T16:25:30;-3.30;99.90
10263;DHT22;5177;50.068;8.156;2022-12-18T16:27:56;-3.30;99.90
10263;DHT22;5177;50.068;8.156;2022-12-18T16:30:25;-3.30;99.90
10263;DHT22;5177;50.068;8.156;2022-12-18T16:32:53;-3.30;99.90
10263;DHT22;5177;50.068;8.156;2022-12-18T16:35:19;-3.30;99.90
10263;DHT22;5177;50.068;8.156;2022-12-18T16:37:44;-3.20;99.90
10263;DHT22;5177;50.068;8.156;2022-12-18T16:40:11;-3.20;99.90
10263;DHT22;5177;50.068;8.156;2022-12-18T16:42:41;-3.10;99.90
10263;DHT22;5177;50.068;8.156;2022-12-18T16:45:07;-3.20;99.90
10263;DHT22;5177;50.068;8.156;2022-12-18T16:47:33;-3.10;99.90
10263;DHT22;5177;50.068;8.156;2022-12-18T16:49:59;-3.10;99.90
10263;DHT22;5177;50.068;8.156;2022-12-18T16:52:24;-3.10;99.90
10263;DHT22;5177;50.068;8.156;2022-12-18T16:54:50;-3.00;99.90
10263;DHT22;5177;50.068;8.156;2022-12-18T16:57:16;-3.00;99.90
10263;DHT22;5177;50.068;8.156;2022-12-18T16:59:42;-3.00;99.90
10263;DHT22;5177;50.068;8.156;2022-12-18T17:02:12;-2.90;99.90
10263;DHT22;5177;50.068;8.156;2022-12-18T17:04:38;-3.00;99.90
10263;DHT22;5177;50.068;8.156;2022-12-18T17:07:04;-2.90;99.90
10263;DHT22;5177;50.068;8.156;2022-12-18T17:09:29;-2.90;99.90
10263;DHT22;5177;50.068;8.156;2022-12-18T17:11:55;-3.00;99.90
10263;DHT22;5177;50.068;8.156;2022-12-18T17:14:21;-3.00;99.90
10263;DHT22;5177;50.068;8.156;2022-12-18T17:16:47;-3.00;99.90
10263;DHT22;5177;50.068;8.156;2022-12-18T17:19:13;-2.90;99.90
10263;DHT22;5177;50.068;8.156;2022-12-18T17:21:39;-2.90;99.90
10263;DHT22;5177;50.068;8.156;2022-12-18T17:24:05;-2.90;99.90